createdAt,value
2018-12-08T00:01:17.339Z,83.88
2018-12-08T00:03:47.047Z,84.11
2018-12-08T00:06:16.525Z,85.16
2018-12-08T00:08:45.626Z,84.00
2018-12-08T00:11:14.706Z,83.97
2018-12-08T00:13:44.142Z,84.07
2018-12-08T00:16:13.194Z,84.95
2018-12-08T00:18:42.202Z,84.32
2018-12-08T00:21:11.709Z,85.03
2018-12-08T00:23:41.186Z,85.00
2018-12-08T00:26:11.156Z,84.76
2018-12-08T00:28:40.437Z,84.22
2018-12-08T00:31:20.937Z,84.14
2018-12-08T00:33:49.990Z,84.36
2018-12-08T00:36:19.085Z,84.84
2018-12-08T00:38:48.177Z,84.75
2018-12-08T00:41:17.321Z,84.58
2018-12-08T00:43:46.370Z,84.29
2018-12-08T00:46:15.542Z,85.58
2018-12-08T00:48:44.680Z,85.04
2018-12-08T00:51:13.937Z,84.14
2018-12-08T00:53:43.037Z,85.41
2018-12-08T00:56:12.457Z,84.67
2018-12-08T00:58:41.454Z,84.64
2018-12-08T01:01:10.646Z,84.76
2018-12-08T01:03:40.790Z,84.75
2018-12-08T01:06:09.835Z,84.15
2018-12-08T01:08:38.849Z,84.64
2018-12-08T01:11:07.898Z,83.22
2018-12-08T01:13:37.748Z,83.75
2018-12-08T01:16:06.857Z,84.20
2018-12-08T01:18:36.230Z,83.81
2018-12-08T01:21:05.366Z,84.89
2018-12-08T01:23:34.511Z,85.16
2018-12-08T01:26:04.365Z,84.86
2018-12-08T01:28:33.442Z,83.98
2018-12-08T01:31:02.527Z,84.73
2018-12-08T01:33:32.183Z,83.85
2018-12-08T01:36:01.209Z,84.72
2018-12-08T01:38:30.385Z,83.84
2018-12-08T01:40:59.752Z,83.61
2018-12-08T01:43:28.845Z,84.59
2018-12-08T01:45:57.957Z,84.10
2018-12-08T01:48:27.333Z,84.53
2018-12-08T01:50:56.453Z,84.62
2018-12-08T01:53:25.521Z,83.94
2018-12-08T01:55:55.043Z,84.24
2018-12-08T01:58:24.121Z,84.61
2018-12-08T02:00:53.769Z,84.58
2018-12-08T02:03:23.660Z,83.86
2018-12-08T02:05:54.037Z,83.73
2018-12-08T02:08:23.053Z,84.81
2018-12-08T02:10:54.433Z,84.38
2018-12-08T02:13:23.513Z,83.74
2018-12-08T02:15:52.609Z,83.92
2018-12-08T02:18:22.026Z,84.70
2018-12-08T02:20:51.093Z,84.04
2018-12-08T02:23:20.197Z,84.58
2018-12-08T02:25:49.609Z,84.15
2018-12-08T02:28:18.701Z,84.73
2018-12-08T02:30:47.709Z,84.41
2018-12-08T02:33:17.101Z,83.90
2018-12-08T02:35:46.190Z,84.40
2018-12-08T02:38:15.388Z,84.49
2018-12-08T02:40:45.317Z,84.11
2018-12-08T02:43:14.414Z,84.38
2018-12-08T02:45:44.618Z,83.93
2018-12-08T02:48:14.037Z,84.87
2018-12-08T02:50:43.061Z,84.96
2018-12-08T02:53:12.505Z,84.69
2018-12-08T02:55:41.925Z,84.45
2018-12-08T02:58:11.154Z,84.62
2018-12-08T03:00:40.154Z,83.88
2018-12-08T03:03:11.374Z,84.58
2018-12-08T03:05:40.444Z,84.40
2018-12-08T03:08:09.648Z,84.05
2018-12-08T03:10:39.157Z,83.64
2018-12-08T03:13:08.385Z,83.37
2018-12-08T03:15:37.453Z,84.33
2018-12-08T03:18:06.859Z,84.38
2018-12-08T03:20:35.944Z,83.70
2018-12-08T03:23:05.253Z,84.10
2018-12-08T03:25:34.750Z,83.89
2018-12-08T03:28:04.110Z,84.50
2018-12-08T03:30:33.866Z,84.32
2018-12-08T03:33:03.590Z,84.23
2018-12-08T03:35:32.617Z,83.14
2018-12-08T03:38:01.654Z,82.76
2018-12-08T03:40:30.806Z,83.28
2018-12-08T03:42:59.910Z,83.02
2018-12-08T03:45:28.962Z,83.35
2018-12-08T03:47:58.030Z,82.58
2018-12-08T03:50:27.037Z,82.50
2018-12-08T03:52:56.117Z,83.15
2018-12-08T03:55:25.185Z,82.79
2018-12-08T03:57:54.313Z,83.60
2018-12-08T04:00:23.314Z,82.88
2018-12-08T04:02:52.464Z,83.26
2018-12-08T04:05:21.597Z,83.14
2018-12-08T04:07:50.790Z,83.21
2018-12-08T04:10:20.062Z,82.88
2018-12-08T04:12:49.083Z,82.47
2018-12-08T04:15:18.084Z,83.03
2018-12-08T04:17:47.602Z,82.85
2018-12-08T04:20:16.665Z,82.39
2018-12-08T04:22:45.684Z,81.79
2018-12-08T04:25:16.227Z,82.49
2018-12-08T04:27:45.421Z,82.81
2018-12-08T04:30:14.597Z,82.85
2018-12-08T04:32:44.028Z,82.94
2018-12-08T04:35:13.117Z,82.08
2018-12-08T04:37:42.377Z,82.46
2018-12-08T04:40:12.009Z,82.23
2018-12-08T04:42:41.181Z,82.40
2018-12-08T04:45:10.762Z,81.95
2018-12-08T04:47:40.524Z,82.02
2018-12-08T04:50:09.733Z,82.49
2018-12-08T04:52:38.807Z,82.62
2018-12-08T04:55:08.421Z,82.60
2018-12-08T04:57:37.510Z,82.42
2018-12-08T05:00:07.441Z,81.98
2018-12-08T05:02:36.942Z,82.62
2018-12-08T05:05:06.254Z,82.80
2018-12-08T05:07:35.281Z,82.20
2018-12-08T05:10:05.667Z,82.51
2018-12-08T05:12:34.761Z,81.97
2018-12-08T05:15:05.537Z,82.25
2018-12-08T05:17:34.781Z,82.74
2018-12-08T05:20:04.401Z,82.27
2018-12-08T05:22:33.607Z,81.93
2018-12-08T05:25:02.678Z,82.73
2018-12-08T05:27:31.877Z,81.73
2018-12-08T05:30:01.312Z,82.19
2018-12-08T05:32:30.405Z,82.86
2018-12-08T05:34:59.673Z,82.86
2018-12-08T05:37:29.093Z,82.52
2018-12-08T05:39:58.191Z,82.28
2018-12-08T05:42:27.249Z,82.88
2018-12-08T05:44:56.673Z,82.31
2018-12-08T05:47:25.693Z,81.78
2018-12-08T05:49:55.317Z,82.56
2018-12-08T05:52:24.411Z,83.21
2018-12-08T05:54:53.457Z,81.85
2018-12-08T05:57:22.621Z,82.50
2018-12-08T05:59:52.074Z,82.72
2018-12-08T06:02:22.125Z,81.90
2018-12-08T06:04:51.155Z,81.43
2018-12-08T06:07:20.597Z,81.60
2018-12-08T06:09:50.228Z,80.87
2018-12-08T06:12:19.273Z,79.55
2018-12-08T06:14:48.691Z,78.82
2018-12-08T06:17:18.036Z,79.21
2018-12-08T06:19:47.065Z,79.01
2018-12-08T06:22:16.506Z,78.40
2018-12-08T06:24:45.609Z,77.59
2018-12-08T06:27:51.506Z,76.83
2018-12-08T06:30:20.521Z,77.51
2018-12-08T06:32:49.621Z,77.19
2018-12-08T06:35:19.136Z,77.91
2018-12-08T06:37:48.868Z,77.48
2018-12-08T06:40:18.900Z,77.56
2018-12-08T06:42:49.137Z,77.31
2018-12-08T06:45:18.374Z,76.33
2018-12-08T06:47:47.796Z,77.21
2018-12-08T06:50:16.872Z,77.44
2018-12-08T06:52:45.949Z,76.78
2018-12-08T06:55:15.078Z,76.93
2018-12-08T06:57:44.170Z,75.71
2018-12-08T07:00:13.387Z,76.29
2018-12-08T07:02:42.426Z,75.73
2018-12-08T07:05:11.457Z,77.38
2018-12-08T07:07:40.889Z,76.68
2018-12-08T07:10:10.458Z,76.22
2018-12-08T07:12:39.555Z,76.39
2018-12-08T07:15:09.014Z,75.97
2018-12-08T07:17:38.528Z,75.77
2018-12-08T07:20:07.754Z,76.58
2018-12-08T07:22:37.665Z,77.30
2018-12-08T07:25:07.403Z,77.01
2018-12-08T07:27:36.584Z,76.42
2018-12-08T07:30:08.399Z,77.46
2018-12-08T07:32:38.917Z,76.05
2018-12-08T07:35:09.797Z,76.63
2018-12-08T07:37:38.819Z,76.44
2018-12-08T07:40:09.365Z,76.51
2018-12-08T07:42:38.840Z,75.68
2018-12-08T07:45:08.456Z,76.35
2018-12-08T07:47:38.920Z,76.04
2018-12-08T07:50:09.598Z,75.79
2018-12-08T07:52:38.965Z,77.41
2018-12-08T07:55:10.845Z,77.42
2018-12-08T07:57:40.989Z,77.29
2018-12-08T08:00:12.533Z,76.53
2018-12-08T08:02:41.933Z,76.40
2018-12-08T08:05:11.161Z,77.24
2018-12-08T08:07:40.229Z,76.52
2018-12-08T08:10:11.521Z,76.41
2018-12-08T08:12:40.586Z,76.20
2018-12-08T08:15:10.610Z,77.23
2018-12-08T08:17:39.689Z,76.51
2018-12-08T08:20:10.929Z,77.19
2018-12-08T08:22:40.045Z,76.40
2018-12-08T08:25:10.961Z,77.51
2018-12-08T08:27:40.191Z,76.31
2018-12-08T08:30:11.421Z,76.61
2018-12-08T08:32:40.473Z,75.97
2018-12-08T08:35:09.746Z,77.37
2018-12-08T08:37:40.278Z,77.56
2018-12-08T08:40:10.999Z,76.87
2018-12-08T08:42:40.106Z,77.45
2018-12-08T08:45:10.067Z,77.06
2018-12-08T08:47:39.278Z,77.15
2018-12-08T08:50:10.933Z,77.14
2018-12-08T08:52:39.934Z,77.70
2018-12-08T08:55:09.035Z,77.20
2018-12-08T08:57:38.129Z,77.77
2018-12-08T09:00:09.420Z,77.13
2018-12-08T09:02:39.615Z,77.23
2018-12-08T09:05:08.905Z,76.72
2018-12-08T09:07:39.169Z,77.69
2018-12-08T09:10:11.208Z,77.72
2018-12-08T09:12:40.261Z,76.97
2018-12-08T09:15:09.757Z,76.67
2018-12-08T09:17:39.065Z,77.59
2018-12-08T09:20:10.713Z,76.84
2018-12-08T09:22:40.333Z,75.99
2018-12-08T09:25:10.747Z,76.32
2018-12-08T09:27:40.584Z,76.38
2018-12-08T09:30:11.330Z,76.52
2018-12-08T09:32:41.431Z,77.23
2018-12-08T09:35:11.207Z,76.74
2018-12-08T09:37:40.457Z,77.10
2018-12-08T09:40:09.975Z,75.90
2018-12-08T09:42:39.962Z,75.93
2018-12-08T09:45:09.105Z,75.79
2018-12-08T09:47:40.181Z,75.49
2018-12-08T09:50:09.419Z,75.80
2018-12-08T09:52:38.461Z,76.21
2018-12-08T09:55:08.161Z,75.52
2018-12-08T09:57:38.606Z,75.44
2018-12-08T10:00:08.417Z,76.42
2018-12-08T10:02:38.526Z,76.39
2018-12-08T10:05:07.837Z,76.53
2018-12-08T10:07:37.404Z,75.53
2018-12-08T10:10:08.070Z,76.08
2018-12-08T10:12:37.586Z,76.00
2018-12-08T10:15:06.614Z,77.10
2018-12-08T10:17:35.756Z,76.27
2018-12-08T10:20:05.210Z,76.46
2018-12-08T10:22:34.229Z,76.33
2018-12-08T10:25:03.589Z,76.53
2018-12-08T10:27:33.014Z,76.93
2018-12-08T10:30:02.069Z,76.57
2018-12-08T10:32:31.161Z,76.84
2018-12-08T10:35:00.389Z,76.35
2018-12-08T10:37:29.376Z,77.12
2018-12-08T10:39:58.455Z,77.19
2018-12-08T10:42:27.618Z,77.22
2018-12-08T10:44:56.990Z,77.16
2018-12-08T10:47:26.037Z,76.64
2018-12-08T10:49:58.588Z,76.77
2018-12-08T10:52:28.740Z,76.31
2018-12-08T10:55:00.105Z,76.18
2018-12-08T10:57:29.989Z,76.41
2018-12-08T10:59:59.093Z,76.78
2018-12-08T11:02:33.960Z,77.02
2018-12-08T11:05:03.102Z,76.59
2018-12-08T11:07:32.138Z,77.49
2018-12-08T11:10:01.234Z,76.96
2018-12-08T11:12:30.501Z,76.92
2018-12-08T11:15:00.818Z,77.23
2018-12-08T11:17:30.153Z,76.41
2018-12-08T11:19:59.789Z,76.06
2018-12-08T11:22:28.925Z,77.11
2018-12-08T11:24:58.053Z,76.95
2018-12-08T11:27:27.164Z,76.50
2018-12-08T11:29:56.221Z,77.20
2018-12-08T11:32:25.337Z,76.48
2018-12-08T11:34:54.406Z,77.05
2018-12-08T11:37:23.518Z,76.38
2018-12-08T11:39:53.027Z,77.21
2018-12-08T11:42:22.137Z,76.83
2018-12-08T11:44:51.365Z,76.29
2018-12-08T11:47:20.438Z,76.93
2018-12-08T11:49:49.505Z,75.69
2018-12-08T11:52:18.517Z,75.59
2018-12-08T11:54:47.816Z,75.47
2018-12-08T11:57:16.821Z,75.16
2018-12-08T11:59:45.965Z,74.95
2018-12-08T12:02:16.649Z,75.16
2018-12-08T12:04:46.116Z,75.56
2018-12-08T12:07:15.851Z,75.04
2018-12-08T12:09:44.993Z,74.42
2018-12-08T12:12:14.339Z,75.81
2018-12-08T12:14:49.622Z,74.54
2018-12-08T12:17:18.643Z,75.56
2018-12-08T12:19:48.633Z,75.68
2018-12-08T12:22:18.195Z,75.26
2018-12-08T12:24:47.275Z,74.88
2018-12-08T12:27:16.369Z,75.73
2018-12-08T12:29:45.559Z,75.47
2018-12-08T12:32:14.834Z,75.91
2018-12-08T12:34:43.841Z,75.34
2018-12-08T12:37:12.974Z,75.43
2018-12-08T12:39:42.038Z,75.43
2018-12-08T12:42:11.358Z,75.76
2018-12-08T12:44:40.461Z,75.07
2018-12-08T12:47:09.544Z,76.06
2018-12-08T12:49:38.737Z,74.98
2018-12-08T12:52:07.971Z,75.06
2018-12-08T12:54:36.967Z,75.62
2018-12-08T12:57:06.023Z,75.44
2018-12-08T12:59:35.142Z,75.54
2018-12-08T13:02:04.155Z,75.44
2018-12-08T13:04:33.202Z,75.71
2018-12-08T13:07:02.433Z,75.53
2018-12-08T13:09:32.113Z,75.76
2018-12-08T13:12:01.651Z,76.07
2018-12-08T13:14:32.878Z,75.72
2018-12-08T13:17:02.030Z,74.99
2018-12-08T13:19:31.144Z,75.29
2018-12-08T13:22:00.245Z,75.95
2018-12-08T13:24:32.012Z,75.56
2018-12-08T13:27:01.645Z,75.59
2018-12-08T13:29:30.985Z,75.22
2018-12-08T13:32:00.002Z,76.21
2018-12-08T13:34:30.081Z,75.58
2018-12-08T13:36:59.117Z,75.64
2018-12-08T13:39:28.157Z,75.23
2018-12-08T13:41:57.524Z,75.34
2018-12-08T13:44:36.518Z,75.69
2018-12-08T13:47:05.697Z,75.25
2018-12-08T13:49:35.893Z,75.44
2018-12-08T13:52:05.528Z,75.52
2018-12-08T13:54:47.069Z,75.91
2018-12-08T13:57:16.572Z,76.21
2018-12-08T13:59:53.097Z,75.19
2018-12-08T14:02:22.695Z,75.11
2018-12-08T14:04:51.882Z,74.20
2018-12-08T14:07:20.930Z,74.83
2018-12-08T14:09:50.337Z,74.85
2018-12-08T14:12:19.501Z,75.54
2018-12-08T14:14:48.617Z,74.63
2018-12-08T14:17:17.785Z,74.88
2018-12-08T14:19:46.826Z,75.33
2018-12-08T14:22:16.024Z,74.46
2018-12-08T14:24:45.057Z,74.86
2018-12-08T14:27:14.110Z,74.42
2018-12-08T14:29:43.211Z,74.73
2018-12-08T14:32:12.319Z,74.40
2018-12-08T14:34:41.381Z,75.04
2018-12-08T14:37:10.404Z,75.02
2018-12-08T14:39:39.494Z,74.81
2018-12-08T14:42:08.576Z,74.42
2018-12-08T14:44:37.857Z,74.08
2018-12-08T14:47:07.019Z,74.45
2018-12-08T14:49:36.064Z,73.85
2018-12-08T14:52:05.149Z,74.26
2018-12-08T14:54:34.394Z,74.44
2018-12-08T14:57:04.609Z,74.09
2018-12-08T14:59:33.678Z,74.35
2018-12-08T15:02:02.798Z,74.28
2018-12-08T15:04:31.870Z,74.56
2018-12-08T15:07:01.029Z,73.87
2018-12-08T15:09:31.017Z,75.09
2018-12-08T15:12:00.038Z,74.82
2018-12-08T15:14:29.157Z,74.12
2018-12-08T15:16:58.192Z,73.96
2018-12-08T15:19:27.254Z,74.12
2018-12-08T15:21:56.433Z,74.71
2018-12-08T15:24:25.581Z,74.25
2018-12-08T15:26:54.762Z,74.46
2018-12-08T15:29:23.837Z,74.76
2018-12-08T15:31:53.377Z,74.89
2018-12-08T15:34:22.391Z,74.85
2018-12-08T15:36:51.631Z,75.43
2018-12-08T15:39:20.773Z,74.44
2018-12-08T15:41:50.056Z,74.75
2018-12-08T15:44:19.269Z,74.50
2018-12-08T15:46:48.666Z,75.74
2018-12-08T15:49:17.970Z,75.40
2018-12-08T15:51:47.126Z,74.92
2018-12-08T15:54:16.545Z,74.77
2018-12-08T15:56:45.730Z,74.44
2018-12-08T15:59:15.449Z,74.80
2018-12-08T16:01:44.589Z,74.77
2018-12-08T16:04:13.698Z,75.36
2018-12-08T16:06:42.827Z,74.47
2018-12-08T16:09:12.057Z,74.58
2018-12-08T16:11:41.139Z,75.63
2018-12-08T16:14:10.230Z,76.08
2018-12-08T16:16:39.562Z,75.49
2018-12-08T16:19:08.591Z,76.24
2018-12-08T16:21:37.730Z,76.75
2018-12-08T16:24:06.805Z,76.31
2018-12-08T16:26:35.958Z,76.10
2018-12-08T16:29:05.098Z,77.59
2018-12-08T16:31:34.713Z,77.22
2018-12-08T16:34:03.913Z,76.93
2018-12-08T16:36:32.945Z,77.49
2018-12-08T16:39:02.108Z,77.37
2018-12-08T16:41:32.744Z,78.30
2018-12-08T16:44:02.233Z,77.29
2018-12-08T16:46:31.641Z,77.68
2018-12-08T16:49:01.191Z,78.01
2018-12-08T16:51:31.374Z,78.08
2018-12-08T16:54:00.580Z,77.53
2018-12-08T16:56:30.694Z,78.58
2018-12-08T16:59:00.202Z,78.89
2018-12-08T17:01:29.370Z,79.14
2018-12-08T17:03:58.590Z,78.11
2018-12-08T17:06:27.678Z,78.15
2018-12-08T17:08:57.620Z,78.58
2018-12-08T17:11:26.610Z,78.60
2018-12-08T17:13:56.193Z,79.11
2018-12-08T17:16:25.273Z,79.19
2018-12-08T17:18:54.578Z,78.34
2018-12-08T17:21:23.703Z,78.44
2018-12-08T17:23:52.970Z,78.43
2018-12-08T17:26:22.157Z,77.87
2018-12-08T17:28:51.566Z,78.15
2018-12-08T17:31:20.623Z,77.57
2018-12-08T17:33:49.709Z,78.32
2018-12-08T17:36:18.868Z,78.26
2018-12-08T17:38:51.001Z,77.98
2018-12-08T17:41:20.165Z,78.31
2018-12-08T17:43:49.210Z,77.38
2018-12-08T17:46:18.501Z,78.22
2018-12-08T17:48:48.437Z,78.08
2018-12-08T17:51:17.514Z,77.76
2018-12-08T17:53:46.517Z,78.15
2018-12-08T17:56:16.157Z,77.82
2018-12-08T17:58:45.942Z,77.22
2018-12-08T18:01:16.060Z,77.40
2018-12-08T18:03:45.177Z,78.09
2018-12-08T18:06:14.313Z,77.93
2018-12-08T18:08:43.633Z,77.78
2018-12-08T18:11:13.257Z,78.45
2018-12-08T18:13:42.393Z,77.92
2018-12-08T18:16:11.618Z,78.32
2018-12-08T18:18:41.705Z,77.96
2018-12-08T18:21:11.437Z,77.92
2018-12-08T18:23:40.545Z,77.22
2018-12-08T18:26:10.272Z,77.48
2018-12-08T18:28:39.941Z,78.21
2018-12-08T18:31:09.153Z,78.15
2018-12-08T18:33:38.229Z,78.76
2018-12-08T18:36:07.356Z,78.81
2018-12-08T18:38:36.919Z,78.28
2018-12-08T18:41:07.325Z,78.70
2018-12-08T18:43:36.498Z,78.38
2018-12-08T18:46:06.450Z,78.25
2018-12-08T18:48:35.642Z,79.04
2018-12-08T18:51:06.498Z,77.99
2018-12-08T18:53:36.507Z,79.25
2018-12-08T18:56:05.600Z,79.26
2018-12-08T18:58:35.332Z,78.50
2018-12-08T19:01:04.504Z,78.72
2018-12-08T19:03:34.966Z,79.45
2018-12-08T19:06:05.546Z,78.87
2018-12-08T19:08:35.142Z,78.69
2018-12-08T19:11:06.330Z,78.92
2018-12-08T19:13:35.407Z,78.93
2018-12-08T19:16:04.569Z,78.51
2018-12-08T19:18:33.693Z,78.86
2018-12-08T19:21:03.320Z,78.75
2018-12-08T19:23:34.041Z,79.21
2018-12-08T19:26:04.389Z,78.31
2018-12-08T19:28:33.641Z,79.04
2018-12-08T19:31:02.723Z,78.66
2018-12-08T19:33:32.162Z,78.80
2018-12-08T19:36:02.741Z,79.65
2018-12-08T19:38:33.115Z,78.38
2018-12-08T19:41:03.952Z,78.73
2018-12-08T19:43:33.773Z,79.41
2018-12-08T19:46:04.497Z,78.88
2018-12-08T19:48:35.672Z,79.62
2018-12-08T19:51:05.538Z,78.99
2018-12-08T19:53:36.088Z,79.50
2018-12-08T19:56:05.315Z,79.67
2018-12-08T19:58:34.462Z,79.39
2018-12-08T20:01:05.010Z,79.40
2018-12-08T20:03:34.105Z,79.41
2018-12-08T20:06:03.098Z,79.44
2018-12-08T20:08:32.789Z,78.82
2018-12-08T20:11:01.998Z,78.93
2018-12-08T20:13:31.072Z,79.21
2018-12-08T20:16:00.469Z,79.00
2018-12-08T20:18:29.558Z,79.40
2018-12-08T20:20:58.655Z,79.63
2018-12-08T20:23:27.784Z,80.15
2018-12-08T20:25:56.857Z,79.38
2018-12-08T20:28:25.949Z,80.38
2018-12-08T20:30:55.089Z,79.37
2018-12-08T20:33:24.279Z,79.21
2018-12-08T20:35:53.410Z,79.16
2018-12-08T20:38:22.578Z,79.33
2018-12-08T20:40:51.591Z,79.49
2018-12-08T20:43:20.617Z,79.15
2018-12-08T20:45:49.699Z,79.24
2018-12-08T20:48:18.799Z,79.87
2018-12-08T20:50:47.877Z,78.90
2018-12-08T20:53:17.038Z,78.78
2018-12-08T20:55:46.202Z,78.36
2018-12-08T20:58:15.281Z,78.92
2018-12-08T21:00:44.457Z,79.57
2018-12-08T21:03:14.713Z,78.74
2018-12-08T21:05:43.797Z,78.70
2018-12-08T21:08:12.965Z,78.37
2018-12-08T21:10:42.541Z,78.66
2018-12-08T21:13:11.517Z,78.87
2018-12-08T21:15:40.635Z,78.35
2018-12-08T21:18:10.105Z,78.26
2018-12-08T21:20:39.331Z,78.60
2018-12-08T21:23:08.557Z,78.12
2018-12-08T21:25:37.677Z,78.18
2018-12-08T21:28:06.703Z,79.18
2018-12-08T21:30:36.197Z,79.32
2018-12-08T21:33:05.542Z,78.72
2018-12-08T21:35:34.835Z,78.64
2018-12-08T21:38:04.176Z,77.96
2018-12-08T21:40:33.535Z,79.08
2018-12-08T21:43:02.557Z,79.53
2018-12-08T21:45:32.172Z,79.30
2018-12-08T21:48:01.319Z,78.64
2018-12-08T21:50:30.373Z,78.93
2018-12-08T21:53:00.019Z,78.85
2018-12-08T21:55:29.023Z,79.68
2018-12-08T21:57:58.033Z,79.25
2018-12-08T22:00:27.497Z,79.09
2018-12-08T22:02:56.677Z,79.51
2018-12-08T22:05:25.873Z,79.27
2018-12-08T22:07:54.910Z,79.23
2018-12-08T22:10:23.920Z,79.72
2018-12-08T22:12:52.961Z,79.10
2018-12-08T22:15:22.093Z,80.10
2018-12-08T22:17:51.298Z,78.95
2018-12-08T22:20:21.123Z,78.88
2018-12-08T22:22:50.674Z,79.26
2018-12-08T22:25:19.861Z,79.64
2018-12-08T22:27:49.081Z,79.57
2018-12-08T22:30:18.202Z,79.42
2018-12-08T22:32:48.293Z,80.41
2018-12-08T22:35:17.385Z,79.74
2018-12-08T22:37:46.510Z,80.38
2018-12-08T22:40:16.143Z,79.61
2018-12-08T22:42:45.293Z,79.42
2018-12-08T22:45:14.890Z,80.11
2018-12-08T22:47:43.989Z,79.75
2018-12-08T22:50:13.293Z,80.27
2018-12-08T22:52:42.333Z,80.69
2018-12-08T22:55:11.569Z,80.53
2018-12-08T22:57:40.651Z,80.71
2018-12-08T23:00:18.385Z,79.25
2018-12-08T23:02:51.523Z,79.53
2018-12-08T23:05:20.762Z,79.97
2018-12-08T23:07:50.862Z,80.48
2018-12-08T23:10:20.090Z,79.97
2018-12-08T23:12:49.329Z,79.48
2018-12-08T23:15:18.373Z,79.70
2018-12-08T23:17:47.435Z,79.97
2018-12-08T23:20:16.969Z,79.29
2018-12-08T23:22:46.261Z,79.68
2018-12-08T23:25:16.261Z,80.17
2018-12-08T23:27:45.993Z,79.41
2018-12-08T23:30:15.181Z,79.76
2018-12-08T23:32:44.270Z,80.28
2018-12-08T23:35:13.313Z,79.78
2018-12-08T23:37:42.366Z,80.04
2018-12-08T23:40:11.500Z,80.31
2018-12-08T23:42:41.074Z,80.22
2018-12-08T23:45:10.161Z,80.31
2018-12-08T23:47:39.258Z,80.46
2018-12-08T23:50:10.027Z,80.75
2018-12-08T23:52:39.037Z,80.57
2018-12-08T23:55:09.006Z,80.73
2018-12-08T23:57:39.134Z,81.58
